createdAt,value
2023-09-25T00:01:12.308Z,12.18
2023-09-25T00:05:15.344Z,12.05
2023-09-25T00:09:16.830Z,11.86
2023-09-25T00:13:18.562Z,11.67
2023-09-25T00:17:20.037Z,12.18
2023-09-25T00:21:21.653Z,12.15
2023-09-25T00:25:24.375Z,12.19
2023-09-25T00:29:25.874Z,12.26
2023-09-25T00:33:27.823Z,12.12
2023-09-25T00:37:30.981Z,12.13
2023-09-25T00:41:32.566Z,12.19
2023-09-25T00:45:38.370Z,11.87
2023-09-25T00:49:40.059Z,12.18
2023-09-25T00:53:42.340Z,12.07
2023-09-25T00:57:52.071Z,11.71
2023-09-25T01:01:54.124Z,11.83
2023-09-25T01:05:55.661Z,11.63
2023-09-25T01:10:17.809Z,11.90
2023-09-25T01:14:19.399Z,11.79
2023-09-25T01:18:21.006Z,12.06
2023-09-25T01:22:23.169Z,12.26
2023-09-25T01:26:25.096Z,11.89
2023-09-25T01:30:27.265Z,11.64
2023-09-25T01:34:29.132Z,12.12
2023-09-25T01:38:30.699Z,12.11
2023-09-25T01:42:32.319Z,11.90
2023-09-25T01:46:33.985Z,11.65
2023-09-25T01:50:35.601Z,11.92
2023-09-25T01:54:37.157Z,12.12
2023-09-25T01:58:41.521Z,12.11
2023-09-25T02:02:43.300Z,11.96
2023-09-25T02:06:45.710Z,11.87
2023-09-25T02:10:47.420Z,11.65
2023-09-25T02:14:50.624Z,11.70
2023-09-25T02:18:52.406Z,11.38
2023-09-25T02:22:54.230Z,11.73
2023-09-25T02:26:56.025Z,11.85
2023-09-25T02:30:57.520Z,11.78
2023-09-25T02:34:59.014Z,11.92
2023-09-25T02:39:00.865Z,12.03
2023-09-25T02:43:02.990Z,11.99
2023-09-25T02:47:04.759Z,12.01
2023-09-25T02:51:06.352Z,11.75
2023-09-25T02:55:08.501Z,11.94
2023-09-25T02:59:10.297Z,11.87
2023-09-25T03:03:12.644Z,11.74
2023-09-25T03:07:14.458Z,11.90
2023-09-25T03:11:16.055Z,11.93
2023-09-25T03:15:17.677Z,11.85
2023-09-25T03:19:19.426Z,11.95
2023-09-25T03:23:21.035Z,11.81
2023-09-25T03:27:22.814Z,11.73
2023-09-25T03:31:24.461Z,11.72
2023-09-25T03:35:26.139Z,11.84
2023-09-25T03:39:27.671Z,11.72
2023-09-25T03:43:29.393Z,11.50
2023-09-25T03:47:30.877Z,11.62
2023-09-25T03:51:34.201Z,11.62
2023-09-25T03:55:35.841Z,11.44
2023-09-25T03:59:37.420Z,11.11
2023-09-25T04:03:39.410Z,11.38
2023-09-25T04:07:40.974Z,11.51
2023-09-25T04:11:42.454Z,11.36
2023-09-25T04:15:44.112Z,11.57
2023-09-25T04:19:46.048Z,11.70
2023-09-25T04:23:47.644Z,11.28
2023-09-25T04:27:51.800Z,11.19
2023-09-25T04:31:53.491Z,11.67
2023-09-25T04:35:59.935Z,11.30
2023-09-25T04:40:01.523Z,11.41
2023-09-25T04:44:05.781Z,11.44
2023-09-25T04:48:07.436Z,11.53
2023-09-25T04:52:08.954Z,11.18
2023-09-25T04:56:11.258Z,11.45
2023-09-25T05:00:16.354Z,11.20
2023-09-25T05:04:18.334Z,11.47
2023-09-25T05:08:19.876Z,11.50
2023-09-25T05:12:22.658Z,11.41
2023-09-25T05:16:24.320Z,11.53
2023-09-25T05:20:27.630Z,11.68
2023-09-25T05:24:29.256Z,11.84
2023-09-25T05:28:30.788Z,11.82
2023-09-25T05:32:34.985Z,12.09
2023-09-25T05:36:36.545Z,11.98
2023-09-25T05:40:38.112Z,11.91
2023-09-25T05:44:39.585Z,12.22
2023-09-25T05:48:41.394Z,12.22
2023-09-25T05:52:43.134Z,12.50
2023-09-25T05:56:45.517Z,12.34
2023-09-25T06:00:48.302Z,12.57
2023-09-25T06:04:50.163Z,12.57
2023-09-25T06:08:52.093Z,12.41
2023-09-25T06:12:53.642Z,12.67
2023-09-25T06:16:57.834Z,12.82
2023-09-25T06:20:59.461Z,12.80
2023-09-25T06:25:01.127Z,12.42
2023-09-25T06:29:02.804Z,12.30
2023-09-25T06:33:04.717Z,12.14
2023-09-25T06:37:06.780Z,11.90
2023-09-25T06:41:12.156Z,12.82
2023-09-25T06:45:13.672Z,12.28
2023-09-25T06:49:15.178Z,12.31
2023-09-25T06:53:16.646Z,12.63
2023-09-25T06:57:18.160Z,13.07
2023-09-25T07:01:19.961Z,13.41
2023-09-25T07:05:21.719Z,13.59
2023-09-25T07:09:23.850Z,13.85
2023-09-25T07:13:25.732Z,14.04
2023-09-25T07:17:29.147Z,14.01
2023-09-25T07:21:30.770Z,14.29
2023-09-25T07:25:32.320Z,14.41
2023-09-25T07:29:42.057Z,15.01
2023-09-25T07:33:44.188Z,14.67
2023-09-25T07:37:45.882Z,15.12
2023-09-25T07:41:47.378Z,15.40
2023-09-25T07:45:49.727Z,15.91
2023-09-25T07:49:51.715Z,15.72
2023-09-25T07:53:59.402Z,15.50
2023-09-25T07:58:01.027Z,15.92
2023-09-25T08:02:02.900Z,16.25
2023-09-25T08:06:06.610Z,16.05
2023-09-25T08:10:09.424Z,16.27
2023-09-25T08:14:10.886Z,16.70
2023-09-25T08:18:12.523Z,16.78
2023-09-25T08:22:14.067Z,16.71
2023-09-25T08:26:17.466Z,16.40
2023-09-25T08:30:19.884Z,16.34
2023-09-25T08:34:22.675Z,16.30
2023-09-25T08:38:24.202Z,17.09
2023-09-25T08:42:26.837Z,17.44
2023-09-25T08:46:29.495Z,17.02
2023-09-25T08:50:31.351Z,17.15
2023-09-25T08:54:33.244Z,17.51
2023-09-25T08:58:35.016Z,17.80
2023-09-25T09:02:37.127Z,17.35
2023-09-25T09:06:39.053Z,17.79
2023-09-25T09:10:41.302Z,18.14
2023-09-25T09:14:44.422Z,17.97
2023-09-25T09:18:47.473Z,18.50
2023-09-25T09:22:53.362Z,18.11
2023-09-25T09:26:54.847Z,18.25
2023-09-25T09:30:57.610Z,17.57
2023-09-25T09:35:00.203Z,17.94
2023-09-25T09:39:04.658Z,18.14
2023-09-25T09:43:07.982Z,18.03
2023-09-25T09:47:09.995Z,18.43
2023-09-25T09:55:15.401Z,17.93
2023-09-25T09:59:18.156Z,18.76
2023-09-25T10:03:20.035Z,18.66
2023-09-25T10:07:21.742Z,18.72
2023-09-25T10:11:24.663Z,18.31
2023-09-25T10:15:26.808Z,18.82
2023-09-25T10:19:37.667Z,18.74
2023-09-25T10:23:47.749Z,18.97
2023-09-25T10:27:49.713Z,18.92
2023-09-25T10:31:51.359Z,18.75
2023-09-25T10:36:02.432Z,18.69
2023-09-25T10:40:04.744Z,18.70
2023-09-25T10:44:06.774Z,18.86
2023-09-25T10:48:08.526Z,18.90
2023-09-25T10:52:10.085Z,19.46
2023-09-25T10:56:12.429Z,19.14
2023-09-25T11:00:16.469Z,19.16
2023-09-25T11:04:18.388Z,19.07
2023-09-25T11:08:22.222Z,19.11
2023-09-25T11:12:23.841Z,19.19
2023-09-25T11:16:26.428Z,19.58
2023-09-25T11:20:31.455Z,19.15
2023-09-25T11:24:34.530Z,19.65
2023-09-25T11:28:36.093Z,19.97
2023-09-25T11:32:37.730Z,20.16
2023-09-25T11:36:45.911Z,20.21
2023-09-25T11:40:47.820Z,19.52
2023-09-25T11:44:49.517Z,19.51
2023-09-25T11:48:51.237Z,19.84
2023-09-25T11:52:53.679Z,19.67
2023-09-25T11:56:55.190Z,19.59
2023-09-25T12:00:56.829Z,19.50
2023-09-25T12:04:59.537Z,19.91
2023-09-25T12:09:11.835Z,19.88
2023-09-25T12:13:13.365Z,19.10
2023-09-25T12:17:17.460Z,19.75
2023-09-25T12:21:20.615Z,19.26
2023-09-25T12:25:23.296Z,20.14
2023-09-25T12:29:25.157Z,19.49
2023-09-25T12:33:26.684Z,20.49
2023-09-25T12:37:29.993Z,19.78
2023-09-25T12:41:32.401Z,19.83
2023-09-25T12:45:34.006Z,19.72
2023-09-25T12:49:35.583Z,19.67
2023-09-25T12:53:37.136Z,20.01
2023-09-25T12:57:39.192Z,20.58
2023-09-25T13:01:40.848Z,20.04
2023-09-25T13:05:43.339Z,20.12
2023-09-25T13:09:44.905Z,20.00
2023-09-25T13:13:46.429Z,19.62
2023-09-25T13:17:50.843Z,19.76
2023-09-25T13:21:52.539Z,19.78
2023-09-25T13:25:54.070Z,19.62
2023-09-25T13:29:55.604Z,19.75
2023-09-25T13:33:57.106Z,19.97
2023-09-25T13:37:58.638Z,19.80
2023-09-25T13:42:00.156Z,19.77
2023-09-25T13:46:02.218Z,20.27
2023-09-25T13:50:03.900Z,20.25
2023-09-25T13:54:05.623Z,19.59
2023-09-25T13:58:07.264Z,20.01
2023-09-25T14:02:08.820Z,20.26
2023-09-25T14:06:10.855Z,20.08
2023-09-25T14:10:14.808Z,19.84
2023-09-25T14:14:16.631Z,20.23
2023-09-25T14:18:18.893Z,20.14
2023-09-25T14:22:21.107Z,20.50
2023-09-25T14:26:22.843Z,20.27
2023-09-25T14:30:24.388Z,20.10
2023-09-25T14:34:26.149Z,19.70
2023-09-25T14:38:27.702Z,20.12
2023-09-25T14:42:33.838Z,19.83
2023-09-25T14:46:35.697Z,19.73
2023-09-25T14:50:37.736Z,20.06
2023-09-25T14:54:39.273Z,19.84
2023-09-25T14:58:41.560Z,19.67
2023-09-25T15:02:43.584Z,19.52
2023-09-25T15:06:45.492Z,19.65
2023-09-25T15:10:47.429Z,20.01
2023-09-25T15:14:48.882Z,19.66
2023-09-25T15:18:50.546Z,19.73
2023-09-25T15:22:52.402Z,19.49
2023-09-25T15:26:54.065Z,19.47
2023-09-25T15:30:55.654Z,19.34
2023-09-25T15:34:57.216Z,19.33
2023-09-25T15:38:58.949Z,19.60
2023-09-25T15:43:00.598Z,19.12
2023-09-25T15:47:02.265Z,18.90
2023-09-25T15:51:03.815Z,18.90
2023-09-25T15:55:05.958Z,18.82
2023-09-25T15:59:07.472Z,18.98
2023-09-25T16:03:09.024Z,18.65
2023-09-25T16:07:10.606Z,18.09
2023-09-25T16:11:12.416Z,19.02
2023-09-25T16:15:13.894Z,18.44
2023-09-25T16:19:16.703Z,18.50
2023-09-25T16:23:18.360Z,18.76
2023-09-25T16:27:20.173Z,18.70
2023-09-25T16:31:22.153Z,18.29
2023-09-25T16:35:24.001Z,18.35
2023-09-25T16:39:29.692Z,18.46
2023-09-25T16:43:34.857Z,18.62
2023-09-25T16:47:36.420Z,18.25
2023-09-25T16:51:38.082Z,18.43
2023-09-25T16:55:46.852Z,18.21
2023-09-25T16:59:51.303Z,18.13
2023-09-25T17:03:53.071Z,17.95
2023-09-25T17:07:55.323Z,17.78
2023-09-25T17:11:56.850Z,17.56
2023-09-25T17:15:59.043Z,17.46
2023-09-25T17:20:00.793Z,16.84
2023-09-25T17:24:02.257Z,16.90
2023-09-25T17:28:07.181Z,16.59
2023-09-25T17:32:09.000Z,16.44
2023-09-25T17:36:10.586Z,16.38
2023-09-25T17:40:13.019Z,15.72
2023-09-25T17:44:14.564Z,14.87
2023-09-25T17:48:16.076Z,14.74
2023-09-25T17:52:24.177Z,14.18
2023-09-25T17:56:26.743Z,14.01
2023-09-25T18:00:28.367Z,13.70
2023-09-25T18:04:30.018Z,13.76
2023-09-25T18:08:31.911Z,13.72
2023-09-25T18:12:36.140Z,13.73
2023-09-25T18:16:40.242Z,13.78
2023-09-25T18:20:41.848Z,13.55
2023-09-25T18:24:43.564Z,13.96
2023-09-25T18:28:45.521Z,14.62
2023-09-25T18:32:47.035Z,14.08
2023-09-25T18:36:48.781Z,14.70
2023-09-25T18:40:50.374Z,14.70
2023-09-25T18:44:51.998Z,14.65
2023-09-25T18:48:53.548Z,13.20
2023-09-25T18:52:55.024Z,13.22
2023-09-25T18:56:56.561Z,13.57
2023-09-25T19:00:58.109Z,14.14
2023-09-25T19:04:59.956Z,14.34
2023-09-25T19:09:01.847Z,14.24
2023-09-25T19:13:04.009Z,14.13
2023-09-25T19:17:05.739Z,13.41
2023-09-25T19:21:07.785Z,12.86
2023-09-25T19:25:10.660Z,12.65
2023-09-25T19:29:12.307Z,12.38
2023-09-25T19:33:13.916Z,12.60
2023-09-25T19:37:15.585Z,13.06
2023-09-25T19:41:17.259Z,12.77
2023-09-25T19:45:18.815Z,12.53
2023-09-25T19:49:20.579Z,12.05
2023-09-25T19:53:22.158Z,11.95
2023-09-25T19:57:24.593Z,12.07
2023-09-25T20:01:26.514Z,11.90
2023-09-25T20:05:29.838Z,12.22
2023-09-25T20:09:31.534Z,12.43
2023-09-25T20:13:33.151Z,12.20
2023-09-25T20:17:35.027Z,11.84
2023-09-25T20:21:36.556Z,11.71
2023-09-25T20:25:38.115Z,11.55
2023-09-25T20:29:39.634Z,11.56
2023-09-25T20:33:41.298Z,11.48
2023-09-25T20:37:43.039Z,12.05
2023-09-25T20:41:44.661Z,12.35
2023-09-25T20:45:46.176Z,11.74
2023-09-25T20:49:47.995Z,11.84
2023-09-25T20:53:49.658Z,11.81
2023-09-25T20:57:51.378Z,11.65
2023-09-25T21:01:52.917Z,11.25
2023-09-25T21:05:54.452Z,11.33
2023-09-25T21:09:56.249Z,11.06
2023-09-25T21:13:57.915Z,11.75
2023-09-25T21:17:59.487Z,11.66
2023-09-25T21:22:01.068Z,11.27
2023-09-25T21:26:02.633Z,10.47
2023-09-25T21:30:04.747Z,11.21
2023-09-25T21:34:06.290Z,11.07
2023-09-25T21:38:08.277Z,10.50
2023-09-25T21:42:11.822Z,11.27
2023-09-25T21:46:13.586Z,10.98
2023-09-25T21:50:15.219Z,11.13
2023-09-25T21:54:17.430Z,11.32
2023-09-25T21:58:19.551Z,11.50
2023-09-25T22:02:21.345Z,11.25
2023-09-25T22:06:25.348Z,11.40
2023-09-25T22:10:27.160Z,11.11
2023-09-25T22:14:29.690Z,11.04
2023-09-25T22:18:31.418Z,10.73
2023-09-25T22:22:33.589Z,10.64
2023-09-25T22:26:35.192Z,10.60
2023-09-25T22:30:36.727Z,10.75
2023-09-25T22:34:38.510Z,10.86
2023-09-25T22:38:40.831Z,11.22
2023-09-25T22:42:42.952Z,10.88
2023-09-25T22:46:44.621Z,10.16
2023-09-25T22:50:46.177Z,9.80
2023-09-25T22:54:47.748Z,10.03
2023-09-25T22:58:49.360Z,10.56
2023-09-25T23:02:53.448Z,9.91
2023-09-25T23:06:55.558Z,10.16
2023-09-25T23:10:57.265Z,10.32
2023-09-25T23:15:00.890Z,9.98
2023-09-25T23:19:02.415Z,10.89
2023-09-25T23:23:04.091Z,11.22
2023-09-25T23:27:05.643Z,11.03
2023-09-25T23:31:07.210Z,11.03
2023-09-25T23:35:10.261Z,10.24
2023-09-25T23:39:13.526Z,10.15
2023-09-25T23:43:15.536Z,9.85
2023-09-25T23:47:17.082Z,10.53
2023-09-25T23:51:18.686Z,10.80
2023-09-25T23:55:20.850Z,10.61
2023-09-25T23:59:22.414Z,10.15
